Aeroporto :
LOGIN :

Iscrizione | Disclaimer

   EN    FR    IT 

 










Sommario :    VFR   VFR Marginale   IFR   IFR Intensivo   IFR Molto Intensivo
Visibilità : 
Base nubi : 
>= 8 km
>= 3000ft
5 / 8 km
1000 / 3000 ft
1500m / 5 km
500 / 1000 ft
800 / 1500m
200 / 500 ft
< 800m
< 200 ft
Simboli :   Temporali  Nebbia  Neve Forte  Precipitazioni Forti  Vento > 20 kt
SIGMETs :   Varie  Temporali  Ghiacco  Turbolenza  Onda orograficha  Ceneri Vulcaniche






- Altitudine del aeroporto : 274 ft
- Codice IATA : PUY


LDPL - Pula

ULTIMO METAR :
  • 131500Z 26008KT 9999 FEW022 12/08 Q1000 NOSIG

METARs OBSOLETI :
  • 131430Z 26013KT 9999 SCT020 12/08 Q1000 BECMG 27008KT
  • 131400Z 28012KT 9999 BKN020 12/09 Q0999 BECMG 27008KT
  • 131330Z 26013KT 9999 BKN018 12/09 Q0999 BECMG 27008KT
  • 131300Z 27013KT 9999 SCT020 12/09 Q0998 BECMG 27008KT
  • 131230Z 27015KT 9999 FEW013 SCT020 13/09 Q0998 NOSIG

TAF TAF LDPL
Valido dal 13 a 12 ore il 14 a 12 ore UTC


131125Z 1312/1412 27015KT 9999 BKN020 TX13/1312Z TN08/1405Z
TEMPO 1312/1316 BKN010
BECMG 1314/1316 27008KT
BECMG 1317/1319 VRB02KT
BECMG 1408/1410 06008KT



MetMap, La meteo Aeronautica in un colpo d'occhio ! - Copyright ORBIFLY Dicembre 2007 - Disclaimer

ORBIFLY MET'MAP TEAM :

Programmazione e sviluppo : Alexandra Zaïnal
Concezione e sviluppo : Baudouin d'Aumeries
Co-Programmazione e sviluppo : Marc-Olivier Méhu
Supporto tecnico e logistico : Manuel Goepfert
Aiuto per la traduzione : Arnaldo La Scala

Contatto : metmap@orbifly.com




FONTI E CREDITI :

   NOAA